sensor_id;sensor_type;location;lat;lon;timestamp;temperature;humidity
86761;SHT30;77521;48.176;16.338;2024-03-25T00:00:00;6.3;67.9
86761;SHT30;77521;48.176;16.338;2024-03-25T00:05:00;6.4;67.2
86761;SHT30;77521;48.176;16.338;2024-03-25T00:10:00;6.4;66.8
86761;SHT30;77521;48.176;16.338;2024-03-25T00:15:00;6.4;66.4
86761;SHT30;77521;48.176;16.338;2024-03-25T00:20:00;6.3;66.5
86761;SHT30;77521;48.176;16.338;2024-03-25T00:25:00;6.3;66.6
86761;SHT30;77521;48.176;16.338;2024-03-25T00:30:00;6.3;67.0
86761;SHT30;77521;48.176;16.338;2024-03-25T00:35:00;6.2;67.5
86761;SHT30;77521;48.176;16.338;2024-03-25T00:40:00;6.2;67.7
86761;SHT30;77521;48.176;16.338;2024-03-25T00:45:00;6.2;67.9
86761;SHT30;77521;48.176;16.338;2024-03-25T00:50:00;6.3;67.9
86761;SHT30;77521;48.176;16.338;2024-03-25T00:55:00;6.3;68.1
86761;SHT30;77521;48.176;16.338;2024-03-25T01:00:00;6.2;68.2
86761;SHT30;77521;48.176;16.338;2024-03-25T01:05:00;6.2;68.7
86761;SHT30;77521;48.176;16.338;2024-03-25T01:10:00;6.3;69.0
86761;SHT30;77521;48.176;16.338;2024-03-25T01:15:00;6.2;69.0
86761;SHT30;77521;48.176;16.338;2024-03-25T01:20:00;6.3;69.1
86761;SHT30;77521;48.176;16.338;2024-03-25T01:25:00;6.2;69.3
86761;SHT30;77521;48.176;16.338;2024-03-25T01:30:00;6.3;69.2
86761;SHT30;77521;48.176;16.338;2024-03-25T01:35:00;6.3;69.1
86761;SHT30;77521;48.176;16.338;2024-03-25T01:40:00;6.3;69.0
86761;SHT30;77521;48.176;16.338;2024-03-25T01:45:00;6.2;68.8
86761;SHT30;77521;48.176;16.338;2024-03-25T01:50:00;6.2;69.0
86761;SHT30;77521;48.176;16.338;2024-03-25T01:55:00;6.2;69.0
86761;SHT30;77521;48.176;16.338;2024-03-25T02:00:00;6.0;69.6
86761;SHT30;77521;48.176;16.338;2024-03-25T02:05:01;6.0;69.8
86761;SHT30;77521;48.176;16.338;2024-03-25T02:10:00;6.0;69.4
86761;SHT30;77521;48.176;16.338;2024-03-25T02:15:00;6.0;69.9
86761;SHT30;77521;48.176;16.338;2024-03-25T02:20:00;5.9;70.7
86761;SHT30;77521;48.176;16.338;2024-03-25T02:25:04;5.9;70.5
86761;SHT30;77521;48.176;16.338;2024-03-25T02:30:03;5.9;70.7
86761;SHT30;77521;48.176;16.338;2024-03-25T02:35:01;5.8;71.3
86761;SHT30;77521;48.176;16.338;2024-03-25T02:40:02;5.7;71.7
86761;SHT30;77521;48.176;16.338;2024-03-25T02:45:00;5.6;72.0
86761;SHT30;77521;48.176;16.338;2024-03-25T02:50:00;5.5;72.5
86761;SHT30;77521;48.176;16.338;2024-03-25T02:55:00;5.6;72.4
86761;SHT30;77521;48.176;16.338;2024-03-25T03:00:00;5.6;72.5
86761;SHT30;77521;48.176;16.338;2024-03-25T03:05:00;5.5;72.6
86761;SHT30;77521;48.176;16.338;2024-03-25T03:10:00;5.5;72.8
86761;SHT30;77521;48.176;16.338;2024-03-25T03:15:00;5.5;73.4
86761;SHT30;77521;48.176;16.338;2024-03-25T03:20:00;5.4;74.0
86761;SHT30;77521;48.176;16.338;2024-03-25T03:25:00;5.4;74.0
86761;SHT30;77521;48.176;16.338;2024-03-25T03:30:00;5.4;73.6
86761;SHT30;77521;48.176;16.338;2024-03-25T03:35:00;5.4;73.6
86761;SHT30;77521;48.176;16.338;2024-03-25T03:40:01;5.4;73.2
86761;SHT30;77521;48.176;16.338;2024-03-25T03:45:00;5.5;72.8
86761;SHT30;77521;48.176;16.338;2024-03-25T03:50:00;5.5;73.0
86761;SHT30;77521;48.176;16.338;2024-03-25T03:55:00;5.4;72.8
86761;SHT30;77521;48.176;16.338;2024-03-25T04:00:00;5.4;72.6
86761;SHT30;77521;48.176;16.338;2024-03-25T04:05:00;5.5;72.1
86761;SHT30;77521;48.176;16.338;2024-03-25T04:10:00;5.5;71.9
86761;SHT30;77521;48.176;16.338;2024-03-25T04:15:00;5.5;71.8
86761;SHT30;77521;48.176;16.338;2024-03-25T04:20:00;5.5;71.4
86761;SHT30;77521;48.176;16.338;2024-03-25T04:25:00;5.7;71.0
86761;SHT30;77521;48.176;16.338;2024-03-25T04:30:00;5.8;70.0
86761;SHT30;77521;48.176;16.338;2024-03-25T04:35:00;5.8;70.2
86761;SHT30;77521;48.176;16.338;2024-03-25T04:40:00;5.8;70.4
86761;SHT30;77521;48.176;16.338;2024-03-25T04:45:00;5.8;70.1
86761;SHT30;77521;48.176;16.338;2024-03-25T04:50:00;5.8;70.4
86761;SHT30;77521;48.176;16.338;2024-03-25T04:55:00;5.8;70.3
86761;SHT30;77521;48.176;16.338;2024-03-25T05:00:00;5.9;70.2
86761;SHT30;77521;48.176;16.338;2024-03-25T05:05:00;6.0;70.0
86761;SHT30;77521;48.176;16.338;2024-03-25T05:10:00;6.0;70.1
86761;SHT30;77521;48.176;16.338;2024-03-25T05:15:00;6.0;70.5
86761;SHT30;77521;48.176;16.338;2024-03-25T05:20:00;6.0;70.3
86761;SHT30;77521;48.176;16.338;2024-03-25T05:25:00;6.0;70.2
86761;SHT30;77521;48.176;16.338;2024-03-25T05:30:00;6.0;70.2
86761;SHT30;77521;48.176;16.338;2024-03-25T05:35:00;6.3;68.9
86761;SHT30;77521;48.176;16.338;2024-03-25T05:40:00;6.4;68.7
86761;SHT30;77521;48.176;16.338;2024-03-25T05:45:00;6.6;67.6
86761;SHT30;77521;48.176;16.338;2024-03-25T05:50:00;6.7;66.4
86761;SHT30;77521;48.176;16.338;2024-03-25T05:55:00;6.9;66.2
86761;SHT30;77521;48.176;16.338;2024-03-25T06:00:00;6.9;65.8
86761;SHT30;77521;48.176;16.338;2024-03-25T06:05:00;6.9;65.8
86761;SHT30;77521;48.176;16.338;2024-03-25T06:10:00;6.9;65.8
86761;SHT30;77521;48.176;16.338;2024-03-25T06:15:00;7.0;65.3
86761;SHT30;77521;48.176;16.338;2024-03-25T06:20:00;7.2;65.1
86761;SHT30;77521;48.176;16.338;2024-03-25T06:25:00;7.2;64.6
86761;SHT30;77521;48.176;16.338;2024-03-25T06:30:00;7.5;63.0
86761;SHT30;77521;48.176;16.338;2024-03-25T06:35:01;7.9;62.0
86761;SHT30;77521;48.176;16.338;2024-03-25T06:40:00;7.9;61.5
86761;SHT30;77521;48.176;16.338;2024-03-25T06:45:00;8.1;60.7
86761;SHT30;77521;48.176;16.338;2024-03-25T06:50:00;8.2;59.7
86761;SHT30;77521;48.176;16.338;2024-03-25T06:55:00;8.4;59.5
86761;SHT30;77521;48.176;16.338;2024-03-25T07:00:00;8.4;59.1
86761;SHT30;77521;48.176;16.338;2024-03-25T07:05:00;8.8;57.8
86761;SHT30;77521;48.176;16.338;2024-03-25T07:10:00;9.0;56.3
86761;SHT30;77521;48.176;16.338;2024-03-25T07:15:00;9.6;55.4
86761;SHT30;77521;48.176;16.338;2024-03-25T07:20:00;10.0;54.0
86761;SHT30;77521;48.176;16.338;2024-03-25T07:25:00;9.8;54.6
86761;SHT30;77521;48.176;16.338;2024-03-25T07:30:00;9.9;52.1
86761;SHT30;77521;48.176;16.338;2024-03-25T07:35:00;11.0;50.3
86761;SHT30;77521;48.176;16.338;2024-03-25T07:40:00;11.1;50.0
86761;SHT30;77521;48.176;16.338;2024-03-25T07:45:00;11.1;49.6
86761;SHT30;77521;48.176;16.338;2024-03-25T07:50:00;10.5;50.4
86761;SHT30;77521;48.176;16.338;2024-03-25T07:55:02;10.4;50.6
86761;SHT30;77521;48.176;16.338;2024-03-25T08:00:00;10.7;50.3
86761;SHT30;77521;48.176;16.338;2024-03-25T08:05:00;11.6;48.6
86761;SHT30;77521;48.176;16.338;2024-03-25T08:10:00;12.0;47.2
86761;SHT30;77521;48.176;16.338;2024-03-25T08:15:00;11.9;46.4
86761;SHT30;77521;48.176;16.338;2024-03-25T08:20:00;11.8;46.3
86761;SHT30;77521;48.176;16.338;2024-03-25T08:25:00;11.9;46.1
86761;SHT30;77521;48.176;16.338;2024-03-25T08:30:00;12.4;45.8
86761;SHT30;77521;48.176;16.338;2024-03-25T08:35:00;12.8;44.4
86761;SHT30;77521;48.176;16.338;2024-03-25T08:40:01;12.8;44.6
86761;SHT30;77521;48.176;16.338;2024-03-25T08:45:00;12.7;44.5
86761;SHT30;77521;48.176;16.338;2024-03-25T08:50:00;13.2;42.5
86761;SHT30;77521;48.176;16.338;2024-03-25T08:55:00;13.6;41.9
86761;SHT30;77521;48.176;16.338;2024-03-25T09:00:00;14.7;39.6
86761;SHT30;77521;48.176;16.338;2024-03-25T09:05:00;15.2;37.8
86761;SHT30;77521;48.176;16.338;2024-03-25T09:10:01;14.9;38.5
86761;SHT30;77521;48.176;16.338;2024-03-25T09:15:00;14.4;38.1
86761;SHT30;77521;48.176;16.338;2024-03-25T09:20:00;13.7;40.0
86761;SHT30;77521;48.176;16.338;2024-03-25T09:25:00;14.9;37.6
86761;SHT30;77521;48.176;16.338;2024-03-25T09:30:00;15.6;35.9
86761;SHT30;77521;48.176;16.338;2024-03-25T09:35:00;15.9;34.0
86761;SHT30;77521;48.176;16.338;2024-03-25T09:40:00;17.4;32.4
86761;SHT30;77521;48.176;16.338;2024-03-25T09:45:01;21.7;25.4
86761;SHT30;77521;48.176;16.338;2024-03-25T09:50:02;22.1;25.1
86761;SHT30;77521;48.176;16.338;2024-03-25T09:55:01;23.9;22.1
86761;SHT30;77521;48.176;16.338;2024-03-25T10:00:00;25.0;21.5
86761;SHT30;77521;48.176;16.338;2024-03-25T10:05:00;25.1;21.0
86761;SHT30;77521;48.176;16.338;2024-03-25T10:10:03;25.5;20.7
86761;SHT30;77521;48.176;16.338;2024-03-25T10:15:00;24.7;21.7
86761;SHT30;77521;48.176;16.338;2024-03-25T10:20:00;28.4;17.7
86761;SHT30;77521;48.176;16.338;2024-03-25T10:25:00;27.7;17.8
86761;SHT30;77521;48.176;16.338;2024-03-25T10:30:00;29.0;17.2
86761;SHT30;77521;48.176;16.338;2024-03-25T10:35:00;27.0;19.1
86761;SHT30;77521;48.176;16.338;2024-03-25T10:40:01;24.9;20.1
86761;SHT30;77521;48.176;16.338;2024-03-25T10:45:00;26.5;19.9
86761;SHT30;77521;48.176;16.338;2024-03-25T10:50:05;31.0;15.7
86761;SHT30;77521;48.176;16.338;2024-03-25T10:55:01;29.1;17.1
86761;SHT30;77521;48.176;16.338;2024-03-25T11:00:01;28.6;17.6
86761;SHT30;77521;48.176;16.338;2024-03-25T11:05:00;26.9;18.5
86761;SHT30;77521;48.176;16.338;2024-03-25T11:10:03;28.2;17.2
86761;SHT30;77521;48.176;16.338;2024-03-25T11:15:01;32.0;15.2
86761;SHT30;77521;48.176;16.338;2024-03-25T11:20:06;30.1;15.8
86761;SHT30;77521;48.176;16.338;2024-03-25T11:25:06;31.2;15.5
86761;SHT30;77521;48.176;16.338;2024-03-25T11:30:00;28.1;17.5
86761;SHT30;77521;48.176;16.338;2024-03-25T11:35:00;29.5;17.0
86761;SHT30;77521;48.176;16.338;2024-03-25T11:40:01;28.0;17.8
86761;SHT30;77521;48.176;16.338;2024-03-25T11:45:01;19.7;26.6
86761;SHT30;77521;48.176;16.338;2024-03-25T11:50:07;19.5;26.4
86761;SHT30;77521;48.176;16.338;2024-03-25T11:55:03;17.4;29.8
86761;SHT30;77521;48.176;16.338;2024-03-25T12:00:00;21.6;23.8
86761;SHT30;77521;48.176;16.338;2024-03-25T12:05:00;20.1;25.8
86761;SHT30;77521;48.176;16.338;2024-03-25T12:10:00;23.5;22.2
86761;SHT30;77521;48.176;16.338;2024-03-25T12:15:00;22.6;22.4
86761;SHT30;77521;48.176;16.338;2024-03-25T12:20:02;19.6;27.2
86761;SHT30;77521;48.176;16.338;2024-03-25T12:25:01;25.6;19.1
86761;SHT30;77521;48.176;16.338;2024-03-25T12:30:01;18.9;26.8
86761;SHT30;77521;48.176;16.338;2024-03-25T12:35:00;16.2;31.3
86761;SHT30;77521;48.176;16.338;2024-03-25T12:40:00;15.0;32.4
86761;SHT30;77521;48.176;16.338;2024-03-25T12:45:00;15.2;32.3
86761;SHT30;77521;48.176;16.338;2024-03-25T12:50:00;15.3;31.3
86761;SHT30;77521;48.176;16.338;2024-03-25T12:55:00;16.5;28.5
86761;SHT30;77521;48.176;16.338;2024-03-25T13:00:00;17.7;29.3
86761;SHT30;77521;48.176;16.338;2024-03-25T13:05:00;20.3;25.6
86761;SHT30;77521;48.176;16.338;2024-03-25T13:10:02;20.4;25.6
86761;SHT30;77521;48.176;16.338;2024-03-25T13:15:00;20.3;25.5
86761;SHT30;77521;48.176;16.338;2024-03-25T13:20:00;19.0;26.8
86761;SHT30;77521;48.176;16.338;2024-03-25T13:25:00;19.8;25.8
86761;SHT30;77521;48.176;16.338;2024-03-25T13:30:00;18.9;26.2
86761;SHT30;77521;48.176;16.338;2024-03-25T13:35:00;19.9;25.1
86761;SHT30;77521;48.176;16.338;2024-03-25T13:40:00;19.3;25.1
86761;SHT30;77521;48.176;16.338;2024-03-25T13:45:00;17.8;28.2
86761;SHT30;77521;48.176;16.338;2024-03-25T13:50:01;17.7;28.4
86761;SHT30;77521;48.176;16.338;2024-03-25T13:55:00;16.6;30.3
86761;SHT30;77521;48.176;16.338;2024-03-25T14:00:00;17.0;30.3
86761;SHT30;77521;48.176;16.338;2024-03-25T14:05:00;16.8;30.9
86761;SHT30;77521;48.176;16.338;2024-03-25T14:10:00;16.3;30.4
86761;SHT30;77521;48.176;16.338;2024-03-25T14:15:00;16.0;30.2
86761;SHT30;77521;48.176;16.338;2024-03-25T14:20:00;15.8;30.6
86761;SHT30;77521;48.176;16.338;2024-03-25T14:25:00;15.6;31.5
86761;SHT30;77521;48.176;16.338;2024-03-25T14:30:00;15.3;33.1
86761;SHT30;77521;48.176;16.338;2024-03-25T14:35:00;15.1;33.1
86761;SHT30;77521;48.176;16.338;2024-03-25T14:40:00;15.0;33.7
86761;SHT30;77521;48.176;16.338;2024-03-25T14:45:00;14.5;33.8
86761;SHT30;77521;48.176;16.338;2024-03-25T14:50:00;14.2;34.8
86761;SHT30;77521;48.176;16.338;2024-03-25T14:55:00;14.1;35.3
86761;SHT30;77521;48.176;16.338;2024-03-25T15:00:00;13.9;35.7
86761;SHT30;77521;48.176;16.338;2024-03-25T15:05:00;13.9;35.5
86761;SHT30;77521;48.176;16.338;2024-03-25T15:10:00;14.3;35.6
86761;SHT30;77521;48.176;16.338;2024-03-25T15:15:02;14.7;34.4
86761;SHT30;77521;48.176;16.338;2024-03-25T15:20:00;14.0;34.8
86761;SHT30;77521;48.176;16.338;2024-03-25T15:25:00;14.1;37.5
86761;SHT30;77521;48.176;16.338;2024-03-25T15:30:00;14.1;34.4
86761;SHT30;77521;48.176;16.338;2024-03-25T15:35:00;13.8;34.8
86761;SHT30;77521;48.176;16.338;2024-03-25T15:40:00;13.4;34.7
86761;SHT30;77521;48.176;16.338;2024-03-25T15:45:00;13.2;35.2
86761;SHT30;77521;48.176;16.338;2024-03-25T15:50:00;12.7;36.7
86761;SHT30;77521;48.176;16.338;2024-03-25T15:55:00;12.7;36.4
86761;SHT30;77521;48.176;16.338;2024-03-25T16:00:00;12.4;36.6
86761;SHT30;77521;48.176;16.338;2024-03-25T16:05:00;12.1;38.0
86761;SHT30;77521;48.176;16.338;2024-03-25T16:10:00;12.1;38.7
86761;SHT30;77521;48.176;16.338;2024-03-25T16:15:00;12.0;39.8
86761;SHT30;77521;48.176;16.338;2024-03-25T16:20:00;11.8;40.6
86761;SHT30;77521;48.176;16.338;2024-03-25T16:25:01;11.8;40.7
86761;SHT30;77521;48.176;16.338;2024-03-25T16:30:00;11.7;41.1
86761;SHT30;77521;48.176;16.338;2024-03-25T16:35:00;11.5;41.6
86761;SHT30;77521;48.176;16.338;2024-03-25T16:40:00;11.3;42.0
86761;SHT30;77521;48.176;16.338;2024-03-25T16:45:00;11.2;42.6
86761;SHT30;77521;48.176;16.338;2024-03-25T16:50:00;11.1;42.7
86761;SHT30;77521;48.176;16.338;2024-03-25T16:55:00;11.1;42.6
86761;SHT30;77521;48.176;16.338;2024-03-25T17:00:00;11.0;43.2
86761;SHT30;77521;48.176;16.338;2024-03-25T17:05:00;10.8;43.8
86761;SHT30;77521;48.176;16.338;2024-03-25T17:10:00;10.8;43.9
86761;SHT30;77521;48.176;16.338;2024-03-25T17:15:00;10.6;44.3
86761;SHT30;77521;48.176;16.338;2024-03-25T17:20:00;10.5;44.3
86761;SHT30;77521;48.176;16.338;2024-03-25T17:25:00;10.4;44.3
86761;SHT30;77521;48.176;16.338;2024-03-25T17:30:00;10.4;44.6
86761;SHT30;77521;48.176;16.338;2024-03-25T17:35:00;10.2;44.7
86761;SHT30;77521;48.176;16.338;2024-03-25T17:40:00;10.0;45.4
86761;SHT30;77521;48.176;16.338;2024-03-25T17:45:00;9.9;45.9
86761;SHT30;77521;48.176;16.338;2024-03-25T17:50:00;9.7;46.6
86761;SHT30;77521;48.176;16.338;2024-03-25T17:55:00;9.7;46.5
86761;SHT30;77521;48.176;16.338;2024-03-25T18:00:00;9.5;46.6
86761;SHT30;77521;48.176;16.338;2024-03-25T18:05:00;9.5;47.0
86761;SHT30;77521;48.176;16.338;2024-03-25T18:10:01;9.5;47.1
86761;SHT30;77521;48.176;16.338;2024-03-25T18:15:00;9.4;47.6
86761;SHT30;77521;48.176;16.338;2024-03-25T18:20:00;9.2;47.5
86761;SHT30;77521;48.176;16.338;2024-03-25T18:25:00;9.2;47.7
86761;SHT30;77521;48.176;16.338;2024-03-25T18:30:00;9.1;47.9
86761;SHT30;77521;48.176;16.338;2024-03-25T18:35:00;9.1;48.2
86761;SHT30;77521;48.176;16.338;2024-03-25T18:40:01;9.1;48.2
86761;SHT30;77521;48.176;16.338;2024-03-25T18:45:00;9.1;48.5
86761;SHT30;77521;48.176;16.338;2024-03-25T18:50:00;9.0;48.9
86761;SHT30;77521;48.176;16.338;2024-03-25T18:55:00;8.8;50.1
86761;SHT30;77521;48.176;16.338;2024-03-25T19:00:00;8.9;50.4
86761;SHT30;77521;48.176;16.338;2024-03-25T19:05:00;8.9;50.4
86761;SHT30;77521;48.176;16.338;2024-03-25T19:10:00;8.9;51.0
86761;SHT30;77521;48.176;16.338;2024-03-25T19:15:01;8.7;50.8
86761;SHT30;77521;48.176;16.338;2024-03-25T19:20:02;8.4;52.3
86761;SHT30;77521;48.176;16.338;2024-03-25T19:25:01;8.4;52.9
86761;SHT30;77521;48.176;16.338;2024-03-25T19:30:01;8.2;54.1
86761;SHT30;77521;48.176;16.338;2024-03-25T19:35:00;8.2;53.5
86761;SHT30;77521;48.176;16.338;2024-03-25T19:40:01;8.1;53.7
86761;SHT30;77521;48.176;16.338;2024-03-25T19:45:00;8.0;54.3
86761;SHT30;77521;48.176;16.338;2024-03-25T19:50:00;8.0;54.8
86761;SHT30;77521;48.176;16.338;2024-03-25T19:55:00;7.9;54.4
86761;SHT30;77521;48.176;16.338;2024-03-25T20:00:02;7.7;55.0
86761;SHT30;77521;48.176;16.338;2024-03-25T20:05:00;7.6;55.0
86761;SHT30;77521;48.176;16.338;2024-03-25T20:10:01;7.6;56.1
86761;SHT30;77521;48.176;16.338;2024-03-25T20:15:00;7.5;56.8
86761;SHT30;77521;48.176;16.338;2024-03-25T20:20:00;7.5;54.5
86761;SHT30;77521;48.176;16.338;2024-03-25T20:25:00;7.6;54.3
86761;SHT30;77521;48.176;16.338;2024-03-25T20:30:00;7.4;54.0
86761;SHT30;77521;48.176;16.338;2024-03-25T20:35:00;7.5;53.9
86761;SHT30;77521;48.176;16.338;2024-03-25T20:40:00;7.4;53.7
86761;SHT30;77521;48.176;16.338;2024-03-25T20:45:00;7.3;55.5
86761;SHT30;77521;48.176;16.338;2024-03-25T20:50:00;6.8;58.0
86761;SHT30;77521;48.176;16.338;2024-03-25T20:55:00;6.7;58.7
86761;SHT30;77521;48.176;16.338;2024-03-25T21:00:00;6.8;58.5
86761;SHT30;77521;48.176;16.338;2024-03-25T21:05:00;6.8;58.3
86761;SHT30;77521;48.176;16.338;2024-03-25T21:10:00;6.8;57.9
86761;SHT30;77521;48.176;16.338;2024-03-25T21:15:00;6.7;58.0
86761;SHT30;77521;48.176;16.338;2024-03-25T21:20:00;6.7;58.0
86761;SHT30;77521;48.176;16.338;2024-03-25T21:25:00;6.6;58.1
86761;SHT30;77521;48.176;16.338;2024-03-25T21:30:00;6.6;58.0
86761;SHT30;77521;48.176;16.338;2024-03-25T21:35:00;6.6;56.1
86761;SHT30;77521;48.176;16.338;2024-03-25T21:40:00;6.8;55.0
86761;SHT30;77521;48.176;16.338;2024-03-25T21:45:00;6.8;54.8
86761;SHT30;77521;48.176;16.338;2024-03-25T21:50:00;6.8;54.7
86761;SHT30;77521;48.176;16.338;2024-03-25T21:55:00;6.9;54.4
86761;SHT30;77521;48.176;16.338;2024-03-25T22:00:00;6.8;54.7
86761;SHT30;77521;48.176;16.338;2024-03-25T22:10:00;6.7;54.5
86761;SHT30;77521;48.176;16.338;2024-03-25T22:15:00;6.7;55.2
86761;SHT30;77521;48.176;16.338;2024-03-25T22:20:00;6.7;55.0
86761;SHT30;77521;48.176;16.338;2024-03-25T22:25:00;6.7;54.9
86761;SHT30;77521;48.176;16.338;2024-03-25T22:30:00;6.4;55.8
86761;SHT30;77521;48.176;16.338;2024-03-25T22:35:00;6.1;57.9
86761;SHT30;77521;48.176;16.338;2024-03-25T22:40:00;6.0;58.8
86761;SHT30;77521;48.176;16.338;2024-03-25T22:45:00;5.7;60.6
86761;SHT30;77521;48.176;16.338;2024-03-25T22:50:00;5.6;61.9
86761;SHT30;77521;48.176;16.338;2024-03-25T22:55:00;5.7;61.6
86761;SHT30;77521;48.176;16.338;2024-03-25T23:00:00;5.6;63.0
86761;SHT30;77521;48.176;16.338;2024-03-25T23:05:00;5.5;64.2
86761;SHT30;77521;48.176;16.338;2024-03-25T23:10:00;5.5;64.6
86761;SHT30;77521;48.176;16.338;2024-03-25T23:15:00;5.5;65.1
86761;SHT30;77521;48.176;16.338;2024-03-25T23:20:00;5.4;65.8
86761;SHT30;77521;48.176;16.338;2024-03-25T23:25:00;5.4;65.7
86761;SHT30;77521;48.176;16.338;2024-03-25T23:30:00;5.4;65.8
86761;SHT30;77521;48.176;16.338;2024-03-25T23:35:00;5.2;66.6
86761;SHT30;77521;48.176;16.338;2024-03-25T23:40:00;5.2;66.7
86761;SHT30;77521;48.176;16.338;2024-03-25T23:50:01;4.9;68.9
86761;SHT30;77521;48.176;16.338;2024-03-25T23:55:01;4.7;69.8
